createdAt,value
2018-09-18T00:00:00.870Z,33.6
2018-09-18T00:01:03.299Z,33.7
2018-09-18T00:02:05.459Z,33.6
2018-09-18T00:03:07.900Z,33.8
2018-09-18T00:04:10.336Z,33.7
2018-09-18T00:05:12.762Z,33.7
2018-09-18T00:06:14.937Z,33.8
2018-09-18T00:07:17.397Z,33.8
2018-09-18T00:08:19.827Z,33.6
2018-09-18T00:09:22.271Z,33.7
2018-09-18T00:10:24.702Z,33.6
2018-09-18T00:11:26.861Z,33.7
2018-09-18T00:12:29.021Z,33.8
2018-09-18T00:13:31.459Z,33.6
2018-09-18T00:14:33.885Z,33.7
2018-09-18T00:15:36.328Z,33.6
2018-09-18T00:16:38.760Z,33.7
2018-09-18T00:17:41.190Z,33.7
2018-09-18T00:18:43.619Z,33.8
2018-09-18T00:19:46.049Z,33.9
2018-09-18T00:20:48.493Z,33.7
2018-09-18T00:21:50.928Z,33.7
2018-09-18T00:22:53.088Z,33.8
2018-09-18T00:23:55.523Z,33.7
2018-09-18T00:24:57.955Z,33.8
2018-09-18T00:25:59.859Z,33.8
2018-09-18T00:27:02.028Z,33.8
2018-09-18T00:28:04.176Z,33.8
2018-09-18T00:29:06.628Z,33.7
2018-09-18T00:30:09.061Z,33.8
2018-09-18T00:31:11.487Z,33.8
2018-09-18T00:32:13.916Z,33.8
2018-09-18T00:33:16.358Z,33.9
2018-09-18T00:34:18.493Z,33.8
2018-09-18T00:35:20.946Z,33.8
2018-09-18T00:36:23.102Z,33.8
2018-09-18T00:37:25.540Z,33.8
2018-09-18T00:38:27.976Z,33.8
2018-09-18T00:39:30.415Z,33.9
2018-09-18T00:40:32.848Z,33.7
2018-09-18T00:41:35.277Z,33.8
2018-09-18T00:42:37.705Z,33.7
2018-09-18T00:43:40.160Z,33.6
2018-09-18T00:44:42.591Z,33.7
2018-09-18T00:45:45.026Z,33.6
2018-09-18T00:46:47.457Z,33.8
2018-09-18T00:47:49.886Z,33.6
2018-09-18T00:48:52.045Z,33.6
2018-09-18T00:49:54.474Z,33.6
2018-09-18T00:50:56.900Z,33.4
2018-09-18T00:51:59.364Z,33.5
2018-09-18T00:53:01.794Z,33.6
2018-09-18T00:54:04.227Z,33.5
2018-09-18T00:55:06.662Z,33.5
2018-09-18T00:56:09.097Z,33.5
2018-09-18T00:57:11.520Z,33.6
2018-09-18T00:58:13.946Z,33.5
2018-09-18T00:59:16.379Z,33.5
2018-09-18T01:00:18.814Z,33.5
2018-09-18T01:01:21.246Z,33.5
2018-09-18T01:02:23.676Z,33.6
2018-09-18T01:03:25.826Z,33.5
2018-09-18T01:04:28.254Z,33.5
2018-09-18T01:05:30.685Z,33.5
2018-09-18T01:06:33.111Z,33.5
2018-09-18T01:07:35.276Z,33.5
2018-09-18T01:08:37.709Z,33.5
2018-09-18T01:09:39.858Z,33.5
2018-09-18T01:10:42.293Z,33.5
2018-09-18T01:11:44.730Z,33.4
2018-09-18T01:12:47.154Z,33.4
2018-09-18T01:13:49.587Z,33.4
2018-09-18T01:14:51.764Z,33.4
2018-09-18T01:15:54.194Z,33.5
2018-09-18T01:16:56.627Z,33.6
2018-09-18T01:17:59.056Z,33.4
2018-09-18T01:19:01.483Z,33.5
2018-09-18T01:20:03.907Z,33.5
2018-09-18T01:21:06.338Z,33.4
2018-09-18T01:22:08.786Z,33.5
2018-09-18T01:23:11.232Z,33.4
2018-09-18T01:24:13.388Z,33.4
2018-09-18T01:25:15.814Z,33.5
2018-09-18T01:26:18.247Z,33.5
2018-09-18T01:27:20.676Z,33.5
2018-09-18T01:28:23.100Z,33.4
2018-09-18T01:29:25.526Z,33.4
2018-09-18T01:30:27.959Z,33.4
2018-09-18T01:31:30.383Z,33.5
2018-09-18T01:32:32.815Z,33.4
2018-09-18T01:33:35.246Z,33.3
2018-09-18T01:34:37.407Z,33.4
2018-09-18T01:35:39.840Z,33.3
2018-09-18T01:36:42.278Z,33.4
2018-09-18T01:37:44.704Z,33.3
2018-09-18T01:38:47.136Z,33.3
2018-09-18T01:39:49.573Z,33.3
2018-09-18T01:40:52.003Z,33.5
2018-09-18T01:41:54.427Z,33.4
2018-09-18T01:42:56.857Z,33.3
2018-09-18T01:43:59.301Z,33.4
2018-09-18T01:45:01.725Z,33.2
2018-09-18T01:46:04.164Z,33.4
2018-09-18T01:47:06.597Z,33.4
2018-09-18T01:48:09.021Z,33.4
2018-09-18T01:49:11.451Z,33.4
2018-09-18T01:50:13.874Z,33.3
2018-09-18T01:51:16.307Z,33.3
2018-09-18T01:52:18.777Z,33.4
2018-09-18T01:53:21.207Z,33.2
2018-09-18T01:54:23.633Z,33.3
2018-09-18T01:55:26.075Z,33.3
2018-09-18T01:56:28.511Z,33.3
2018-09-18T01:57:30.941Z,33.4
2018-09-18T01:58:33.366Z,33.3
2018-09-18T01:59:35.505Z,33.3
2018-09-18T02:00:37.932Z,33.2
2018-09-18T02:01:40.354Z,33.3
2018-09-18T02:02:42.792Z,33.5
2018-09-18T02:03:45.224Z,33.2
2018-09-18T02:04:47.657Z,33.3
2018-09-18T02:05:50.090Z,33.4
2018-09-18T02:06:52.531Z,33.3
2018-09-18T02:07:54.966Z,33.3
2018-09-18T02:08:57.411Z,33.3
2018-09-18T02:09:59.564Z,33.2
2018-09-18T02:11:01.997Z,33.3
2018-09-18T02:12:04.427Z,33.3
2018-09-18T02:13:06.857Z,33.3
2018-09-18T02:14:09.294Z,33.3
2018-09-18T02:15:11.734Z,33.4
2018-09-18T02:16:13.895Z,33.3
2018-09-18T02:17:16.335Z,33.3
2018-09-18T02:18:18.768Z,33.2
2018-09-18T02:19:20.917Z,33.4
2018-09-18T02:20:23.351Z,33.3
2018-09-18T02:21:25.497Z,33.3
2018-09-18T02:22:27.936Z,33.2
2018-09-18T02:23:30.370Z,33.3
2018-09-18T02:24:32.514Z,33.3
2018-09-18T02:25:34.954Z,33.3
2018-09-18T02:26:37.130Z,33.3
2018-09-18T02:27:39.014Z,33.3
2018-09-18T02:28:41.448Z,33.1
2018-09-18T02:29:43.605Z,33.2
2018-09-18T02:30:46.035Z,33.3
2018-09-18T02:31:48.474Z,33.3
2018-09-18T02:32:50.907Z,33.3
2018-09-18T02:33:53.337Z,33.2
2018-09-18T02:34:55.776Z,33.4
2018-09-18T02:35:58.221Z,33.3
2018-09-18T02:37:00.398Z,33.3
2018-09-18T02:38:02.830Z,33.4
2018-09-18T02:39:05.261Z,33.3
2018-09-18T02:40:07.689Z,33.3
2018-09-18T02:41:09.854Z,33.2
2018-09-18T02:42:12.293Z,33.3
2018-09-18T02:43:14.472Z,33.2
2018-09-18T02:44:16.907Z,33.3
2018-09-18T02:45:19.348Z,33.3
2018-09-18T02:46:21.767Z,33.3
2018-09-18T02:47:24.200Z,33.3
2018-09-18T02:48:26.638Z,33.3
2018-09-18T02:49:29.075Z,33.3
2018-09-18T02:50:31.521Z,33.3
2018-09-18T02:51:33.952Z,33.4
2018-09-18T02:52:36.420Z,33.2
2018-09-18T02:53:38.848Z,33.4
2018-09-18T02:54:40.979Z,33.2
2018-09-18T02:55:43.415Z,33.2
2018-09-18T02:56:45.847Z,33.3
2018-09-18T02:57:48.001Z,33.2
2018-09-18T02:58:50.433Z,33.4
2018-09-18T02:59:52.862Z,33.1
2018-09-18T03:00:55.283Z,33.1
2018-09-18T03:01:57.710Z,33.3
2018-09-18T03:03:00.138Z,33.2
2018-09-18T03:04:02.571Z,33.3
2018-09-18T03:05:04.997Z,33.3
2018-09-18T03:06:07.434Z,33.4
2018-09-18T03:07:09.584Z,33.2
2018-09-18T03:08:12.052Z,33.2
2018-09-18T03:09:14.206Z,33.5
2018-09-18T03:10:16.641Z,33.2
2018-09-18T03:11:19.304Z,33.3
2018-09-18T03:12:22.117Z,33.3
2018-09-18T03:13:24.540Z,33.2
2018-09-18T03:14:26.968Z,33.3
2018-09-18T03:15:29.398Z,33.2
2018-09-18T03:16:31.835Z,33.2
2018-09-18T03:17:34.258Z,33.2
2018-09-18T03:18:36.687Z,33.2
2018-09-18T03:19:39.126Z,33.1
2018-09-18T03:20:41.570Z,33.2
2018-09-18T03:21:43.730Z,33.2
2018-09-18T03:22:46.154Z,33.3
2018-09-18T03:23:48.586Z,33.3
2018-09-18T03:24:51.037Z,33.2
2018-09-18T03:25:53.465Z,33.3
2018-09-18T03:26:55.638Z,33.2
2018-09-18T03:27:58.068Z,33.2
2018-09-18T03:29:00.230Z,33.2
2018-09-18T03:30:02.365Z,33.2
2018-09-18T03:31:04.527Z,33.2
2018-09-18T03:32:06.958Z,33.2
2018-09-18T03:33:09.386Z,33.3
2018-09-18T03:34:11.816Z,33.3
2018-09-18T03:35:14.263Z,33.2
2018-09-18T03:36:16.696Z,33.3
2018-09-18T03:37:18.844Z,33.3
2018-09-18T03:38:21.292Z,33.2
2018-09-18T03:39:23.465Z,33.3
2018-09-18T03:40:25.903Z,33.3
2018-09-18T03:41:28.323Z,33.3
2018-09-18T03:42:30.823Z,33.4
2018-09-18T03:43:32.995Z,33.3
2018-09-18T03:44:35.436Z,33.2
2018-09-18T03:45:37.899Z,33.3
2018-09-18T03:46:40.347Z,33.2
2018-09-18T03:47:42.787Z,33.2
2018-09-18T03:48:45.230Z,33.2
2018-09-18T03:49:47.649Z,33.3
2018-09-18T03:50:50.098Z,33.2
2018-09-18T03:51:52.543Z,33.3
2018-09-18T03:52:55.187Z,33.2
2018-09-18T03:53:57.705Z,33.2
2018-09-18T03:55:00.172Z,33.2
2018-09-18T03:56:02.605Z,33.2
2018-09-18T03:57:05.043Z,33.3
2018-09-18T03:58:07.217Z,33.1
2018-09-18T03:59:09.689Z,33.3
2018-09-18T04:00:12.121Z,33.1
2018-09-18T04:01:14.553Z,33.2
2018-09-18T04:02:16.719Z,33.3
2018-09-18T04:03:19.158Z,33.1
2018-09-18T04:04:21.335Z,33.2
2018-09-18T04:05:23.787Z,33.1
2018-09-18T04:06:26.256Z,33.2
2018-09-18T04:07:28.409Z,33.2
2018-09-18T04:08:30.847Z,33.1
2018-09-18T04:09:33.012Z,33.3
2018-09-18T04:10:35.452Z,33.2
2018-09-18T04:11:37.877Z,33.2
2018-09-18T04:12:40.312Z,33
2018-09-18T04:13:42.754Z,33.1
2018-09-18T04:14:44.886Z,33.2
2018-09-18T04:15:47.315Z,33.1
2018-09-18T04:16:49.476Z,33.3
2018-09-18T04:17:51.906Z,33.1
2018-09-18T04:18:54.341Z,33.2
2018-09-18T04:19:56.766Z,33.1
2018-09-18T04:20:59.226Z,33.1
2018-09-18T04:22:01.395Z,33.1
2018-09-18T04:23:03.831Z,33.1
2018-09-18T04:24:06.267Z,33.1
2018-09-18T04:25:08.399Z,33.2
2018-09-18T04:26:10.831Z,33.1
2018-09-18T04:27:13.270Z,33.1
2018-09-18T04:28:15.698Z,33.1
2018-09-18T04:29:18.125Z,33
2018-09-18T04:30:20.553Z,33.2
2018-09-18T04:31:23.000Z,33.1
2018-09-18T04:32:25.163Z,33.1
2018-09-18T04:33:27.333Z,33.1
2018-09-18T04:34:29.481Z,33.2
2018-09-18T04:35:31.643Z,33.1
2018-09-18T04:36:34.083Z,33.1
2018-09-18T04:37:36.512Z,33.2
2018-09-18T04:38:38.649Z,33.1
2018-09-18T04:39:41.093Z,33.1
2018-09-18T04:40:43.567Z,33.3
2018-09-18T04:41:46.003Z,33.1
2018-09-18T04:42:48.446Z,33.1
2018-09-18T04:43:50.880Z,33.1
2018-09-18T04:44:53.030Z,33.2
2018-09-18T04:45:55.596Z,33.1
2018-09-18T04:46:58.413Z,33.2
2018-09-18T04:48:00.891Z,33.1
2018-09-18T04:49:03.417Z,33.1
2018-09-18T04:50:05.796Z,33
2018-09-18T04:51:08.309Z,33.1
2018-09-18T04:52:10.751Z,33
2018-09-18T04:53:13.177Z,33.1
2018-09-18T04:54:15.607Z,33
2018-09-18T04:55:18.032Z,33.1
2018-09-18T04:56:20.470Z,33.1
2018-09-18T04:57:22.907Z,33.1
2018-09-18T04:58:25.335Z,33.1
2018-09-18T04:59:27.769Z,33.1
2018-09-18T05:00:29.949Z,33.1
2018-09-18T05:01:32.382Z,33.1
2018-09-18T05:02:34.813Z,33.3
2018-09-18T05:03:37.245Z,33
2018-09-18T05:04:39.678Z,33
2018-09-18T05:05:42.123Z,33.1
2018-09-18T05:06:44.020Z,33.1
2018-09-18T05:07:46.455Z,33.1
2018-09-18T05:08:48.894Z,33.1
2018-09-18T05:09:51.328Z,33
2018-09-18T05:10:53.761Z,33.1
2018-09-18T05:11:56.199Z,33.2
2018-09-18T05:12:58.622Z,33
2018-09-18T05:14:01.218Z,33
2018-09-18T05:15:03.457Z,33
2018-09-18T05:16:05.633Z,33
2018-09-18T05:17:07.777Z,33.1
2018-09-18T05:18:10.200Z,33
2018-09-18T05:19:12.643Z,33
2018-09-18T05:20:15.073Z,33.1
2018-09-18T05:21:17.536Z,33
2018-09-18T05:22:19.953Z,33.1
2018-09-18T05:23:22.118Z,33.2
2018-09-18T05:24:24.552Z,33.2
2018-09-18T05:25:27.080Z,33
2018-09-18T05:26:29.604Z,33
2018-09-18T05:27:32.028Z,33.1
2018-09-18T05:28:34.196Z,33
2018-09-18T05:29:36.624Z,33
2018-09-18T05:30:39.052Z,33
2018-09-18T05:31:41.498Z,33.1
2018-09-18T05:32:43.663Z,33.2
2018-09-18T05:33:46.334Z,33.1
2018-09-18T05:34:49.062Z,33.2
2018-09-18T05:35:51.502Z,33.1
2018-09-18T05:36:53.923Z,33.1
2018-09-18T05:37:56.350Z,33
2018-09-18T05:38:58.792Z,33.1
2018-09-18T05:40:01.244Z,33.2
2018-09-18T05:41:03.674Z,33
2018-09-18T05:42:06.268Z,33
2018-09-18T05:43:09.209Z,33.1
2018-09-18T05:44:11.641Z,33.1
2018-09-18T05:45:14.069Z,33
2018-09-18T05:46:16.490Z,33.1
2018-09-18T05:47:18.947Z,33.2
2018-09-18T05:48:21.383Z,33
2018-09-18T05:49:23.815Z,33.1
2018-09-18T05:50:26.260Z,33
2018-09-18T05:51:28.434Z,33.1
2018-09-18T05:52:30.875Z,33.1
2018-09-18T05:53:33.300Z,33
2018-09-18T05:54:35.735Z,33
2018-09-18T05:55:38.165Z,33.2
2018-09-18T05:56:40.603Z,33.1
2018-09-18T05:57:43.052Z,33.1
2018-09-18T05:58:45.177Z,33.1
2018-09-18T05:59:47.618Z,33.1
2018-09-18T06:00:50.052Z,33.1
2018-09-18T06:01:52.501Z,33.2
2018-09-18T06:02:54.943Z,33
2018-09-18T06:03:57.111Z,33
2018-09-18T06:04:59.536Z,33
2018-09-18T06:06:01.967Z,33
2018-09-18T06:07:04.767Z,33.1
2018-09-18T06:08:07.019Z,33.1
2018-09-18T06:09:09.199Z,33
2018-09-18T06:10:11.632Z,33.1
2018-09-18T06:11:14.071Z,33.2
2018-09-18T06:12:16.504Z,33.1
2018-09-18T06:13:18.930Z,33.2
2018-09-18T06:14:21.364Z,33.1
2018-09-18T06:15:23.837Z,33
2018-09-18T06:16:26.014Z,33
2018-09-18T06:17:28.446Z,33.2
2018-09-18T06:18:30.877Z,33
2018-09-18T06:19:33.323Z,33.1
2018-09-18T06:20:35.764Z,33.1
2018-09-18T06:21:38.188Z,33.1
2018-09-18T06:22:40.616Z,33.1
2018-09-18T06:23:43.056Z,33.1
2018-09-18T06:24:45.476Z,33
2018-09-18T06:25:47.630Z,33.1
2018-09-18T06:26:50.061Z,33.1
2018-09-18T06:27:52.487Z,33.1
2018-09-18T06:28:54.909Z,33.1
2018-09-18T06:29:57.339Z,33.1
2018-09-18T06:30:59.763Z,33.1
2018-09-18T06:32:01.927Z,33.1
2018-09-18T06:33:04.357Z,33.1
2018-09-18T06:34:06.794Z,33
2018-09-18T06:35:08.970Z,33.1
2018-09-18T06:36:11.395Z,33
2018-09-18T06:37:13.841Z,33
2018-09-18T06:38:15.993Z,33
2018-09-18T06:39:18.427Z,33
2018-09-18T06:40:20.857Z,33.1
2018-09-18T06:41:23.282Z,33.1
2018-09-18T06:42:25.975Z,33.2
2018-09-18T06:43:28.840Z,33
2018-09-18T06:44:31.278Z,33
2018-09-18T06:45:33.767Z,33.1
2018-09-18T06:46:36.215Z,33
2018-09-18T06:47:38.658Z,33
2018-09-18T06:48:40.862Z,33.1
2018-09-18T06:49:43.296Z,33
2018-09-18T06:50:45.727Z,33
2018-09-18T06:51:48.149Z,33.1
2018-09-18T06:52:50.572Z,33
2018-09-18T06:53:52.996Z,33
2018-09-18T06:54:55.422Z,33
2018-09-18T06:55:57.581Z,33.1
2018-09-18T06:57:00.016Z,33.1
2018-09-18T06:58:02.448Z,32.9
2018-09-18T06:59:04.879Z,33.1
2018-09-18T07:00:07.316Z,33
2018-09-18T07:01:09.747Z,33.1
2018-09-18T07:02:12.196Z,33
2018-09-18T07:03:14.633Z,33
2018-09-18T07:04:17.067Z,33
2018-09-18T07:05:19.492Z,33.1
2018-09-18T07:06:21.929Z,33
2018-09-18T07:07:24.398Z,33.1
2018-09-18T07:08:26.829Z,33
2018-09-18T07:09:29.259Z,33
2018-09-18T07:10:31.692Z,33
2018-09-18T07:11:34.142Z,33
2018-09-18T07:12:36.573Z,32.9
2018-09-18T07:13:38.996Z,32.9
2018-09-18T07:14:41.420Z,33
2018-09-18T07:15:43.843Z,33
2018-09-18T07:16:46.274Z,33
2018-09-18T07:17:48.703Z,33.1
2018-09-18T07:18:51.167Z,33
2018-09-18T07:19:53.596Z,32.9
2018-09-18T07:20:55.748Z,33
2018-09-18T07:21:58.191Z,33
2018-09-18T07:23:00.624Z,33
2018-09-18T07:24:03.059Z,33
2018-09-18T07:25:05.528Z,33
2018-09-18T07:26:07.961Z,33.1
2018-09-18T07:27:10.393Z,33
2018-09-18T07:28:12.822Z,33
2018-09-18T07:29:14.995Z,33
2018-09-18T07:30:17.524Z,32.9
2018-09-18T07:31:19.948Z,33
2018-09-18T07:32:22.115Z,33.1
2018-09-18T07:33:24.287Z,33.1
2018-09-18T07:34:26.715Z,33
2018-09-18T07:35:29.150Z,33
2018-09-18T07:36:31.597Z,33.1
2018-09-18T07:37:34.037Z,33
2018-09-18T07:38:36.552Z,33
2018-09-18T07:39:39.018Z,33
2018-09-18T07:40:41.507Z,32.9
2018-09-18T07:41:43.949Z,33.1
2018-09-18T07:42:46.407Z,33
2018-09-18T07:43:48.829Z,32.9
2018-09-18T07:44:51.253Z,33
2018-09-18T07:45:53.676Z,33.1
2018-09-18T07:46:56.104Z,32.9
2018-09-18T07:47:58.539Z,33.1
2018-09-18T07:49:00.966Z,33
2018-09-18T07:50:03.397Z,32.9
2018-09-18T07:51:05.831Z,32.9
2018-09-18T07:52:08.282Z,33
2018-09-18T07:53:10.470Z,32.9
2018-09-18T07:54:12.914Z,33
2018-09-18T07:55:15.356Z,33
2018-09-18T07:56:17.499Z,33
2018-09-18T07:57:19.933Z,32.9
2018-09-18T07:58:22.365Z,32.9
2018-09-18T07:59:24.808Z,33
2018-09-18T08:00:27.242Z,33.1
2018-09-18T08:01:29.671Z,33
2018-09-18T08:02:32.111Z,33
2018-09-18T08:03:34.539Z,33
2018-09-18T08:04:36.693Z,32.9
2018-09-18T08:05:39.117Z,33
2018-09-18T08:06:41.541Z,33.1
2018-09-18T08:07:43.967Z,33
2018-09-18T08:08:46.399Z,32.9
2018-09-18T08:09:48.834Z,33
2018-09-18T08:10:51.336Z,33
2018-09-18T08:11:54.158Z,32.9
2018-09-18T08:12:56.314Z,33.1
2018-09-18T08:13:58.755Z,33.1
2018-09-18T08:15:01.188Z,33
2018-09-18T08:16:03.628Z,32.9
2018-09-18T08:17:05.779Z,33.1
2018-09-18T08:18:08.221Z,33
2018-09-18T08:19:10.726Z,33
2018-09-18T08:20:13.549Z,33
2018-09-18T08:21:15.979Z,33
2018-09-18T08:22:18.418Z,33
2018-09-18T08:23:20.867Z,33
2018-09-18T08:24:23.304Z,32.9
2018-09-18T08:25:25.871Z,33
2018-09-18T08:26:28.413Z,32.9
2018-09-18T08:27:30.827Z,33
2018-09-18T08:28:33.257Z,33
2018-09-18T08:29:35.680Z,32.9
2018-09-18T08:30:37.574Z,33
2018-09-18T08:31:40.024Z,33
2018-09-18T08:32:42.862Z,33
2018-09-18T08:33:45.776Z,32.9
2018-09-18T08:34:47.935Z,32.9
2018-09-18T08:35:50.376Z,33
2018-09-18T08:36:52.815Z,32.9
2018-09-18T08:37:55.262Z,33
2018-09-18T08:38:57.752Z,32.9
2018-09-18T08:40:00.496Z,32.9
2018-09-18T08:41:03.632Z,33
2018-09-18T08:42:06.078Z,33
2018-09-18T08:43:08.562Z,32.9
2018-09-18T08:44:11.086Z,32.9
2018-09-18T08:45:13.547Z,33
2018-09-18T08:46:16.113Z,32.8
2018-09-18T08:47:18.932Z,33
2018-09-18T08:48:21.099Z,32.9
2018-09-18T08:49:23.587Z,32.9
2018-09-18T08:50:26.011Z,32.9
2018-09-18T08:51:28.478Z,32.9
2018-09-18T08:52:30.668Z,33
2018-09-18T08:53:33.126Z,33
2018-09-18T08:54:35.683Z,32.8
2018-09-18T08:55:38.292Z,33
2018-09-18T08:56:40.757Z,32.9
2018-09-18T08:57:43.191Z,32.9
2018-09-18T08:58:45.634Z,33
2018-09-18T08:59:48.065Z,32.9
2018-09-18T09:00:50.507Z,32.9
2018-09-18T09:01:53.112Z,33
2018-09-18T09:02:55.889Z,32.9
2018-09-18T09:03:58.622Z,32.8
2018-09-18T09:05:01.163Z,32.9
2018-09-18T09:06:03.710Z,33
2018-09-18T09:07:05.961Z,32.9
2018-09-18T09:08:08.904Z,32.9
2018-09-18T09:09:12.392Z,32.9
2018-09-18T09:10:15.274Z,32.8
2018-09-18T09:11:17.915Z,32.9
2018-09-18T09:12:20.401Z,32.8
2018-09-18T09:13:22.872Z,33
2018-09-18T09:14:25.569Z,32.8
2018-09-18T09:15:28.331Z,33
2018-09-18T09:16:30.967Z,33
2018-09-18T09:17:33.452Z,32.9
2018-09-18T09:18:36.257Z,33
2018-09-18T09:19:39.327Z,32.9
2018-09-18T09:20:41.511Z,33
2018-09-18T09:21:44.184Z,33
2018-09-18T09:22:47.437Z,33
2018-09-18T09:23:50.517Z,33
2018-09-18T09:24:52.945Z,32.9
2018-09-18T09:25:55.454Z,32.9
2018-09-18T09:26:58.168Z,32.9
2018-09-18T09:28:01.094Z,32.9
2018-09-18T09:29:03.560Z,32.9
2018-09-18T09:30:06.160Z,32.9
2018-09-18T09:31:09.097Z,32.9
2018-09-18T09:32:11.391Z,32.9
2018-09-18T09:33:14.457Z,33
2018-09-18T09:34:16.919Z,32.8
2018-09-18T09:35:19.369Z,33
2018-09-18T09:36:21.834Z,33
2018-09-18T09:37:24.277Z,33
2018-09-18T09:38:26.716Z,33
2018-09-18T09:39:29.164Z,33
2018-09-18T09:40:31.607Z,32.9
2018-09-18T09:41:33.776Z,32.9
2018-09-18T09:42:36.214Z,33
2018-09-18T09:43:38.724Z,33
2018-09-18T09:44:41.367Z,32.9
2018-09-18T09:45:43.797Z,33
2018-09-18T09:46:46.232Z,33
2018-09-18T09:47:48.663Z,33
2018-09-18T09:48:51.123Z,33
2018-09-18T09:49:53.555Z,33.1
2018-09-18T09:50:55.983Z,33
2018-09-18T09:51:58.425Z,33
2018-09-18T09:53:00.862Z,33
2018-09-18T09:54:03.297Z,33
2018-09-18T09:55:05.447Z,33
2018-09-18T09:56:07.887Z,33
2018-09-18T09:57:10.089Z,32.9
2018-09-18T09:58:12.518Z,33
2018-09-18T09:59:14.948Z,33
2018-09-18T10:00:17.388Z,33.1
2018-09-18T10:01:19.821Z,33
2018-09-18T10:02:22.270Z,33
2018-09-18T10:03:24.687Z,33
2018-09-18T10:04:27.126Z,32.9
2018-09-18T10:05:29.557Z,33
2018-09-18T10:06:31.717Z,32.9
2018-09-18T10:07:34.143Z,33
2018-09-18T10:08:36.574Z,33
2018-09-18T10:09:39.007Z,33
2018-09-18T10:10:41.662Z,33.1
2018-09-18T10:11:44.568Z,33
2018-09-18T10:12:46.711Z,33
2018-09-18T10:13:49.135Z,33
2018-09-18T10:14:51.595Z,33
2018-09-18T10:15:53.759Z,32.9
2018-09-18T10:16:56.185Z,33
2018-09-18T10:17:58.886Z,33
2018-09-18T10:19:01.352Z,33
2018-09-18T10:20:03.783Z,33
2018-09-18T10:21:06.208Z,33
2018-09-18T10:22:08.633Z,33
2018-09-18T10:23:11.070Z,33
2018-09-18T10:24:13.255Z,33.1
2018-09-18T10:25:15.565Z,33
2018-09-18T10:26:18.820Z,33.1
2018-09-18T10:27:22.011Z,33
2018-09-18T10:28:24.443Z,33
2018-09-18T10:29:26.904Z,33.1
2018-09-18T10:30:29.109Z,32.9
2018-09-18T10:31:31.553Z,32.9
2018-09-18T10:32:34.124Z,33
2018-09-18T10:33:36.720Z,33
2018-09-18T10:34:39.153Z,33
2018-09-18T10:35:41.604Z,33
2018-09-18T10:36:44.050Z,32.9
2018-09-18T10:37:46.486Z,33.1
2018-09-18T10:38:48.946Z,33
2018-09-18T10:39:51.137Z,32.9
2018-09-18T10:40:53.891Z,33
2018-09-18T10:41:57.334Z,33
2018-09-18T10:43:00.486Z,32.9
2018-09-18T10:44:03.396Z,33
2018-09-18T10:45:05.845Z,33
2018-09-18T10:46:08.284Z,33
2018-09-18T10:47:10.449Z,32.9
2018-09-18T10:48:12.928Z,32.9
2018-09-18T10:49:15.386Z,32.9
2018-09-18T10:50:17.940Z,33
2018-09-18T10:51:20.389Z,33
2018-09-18T10:52:22.836Z,32.9
2018-09-18T10:53:25.373Z,32.9
2018-09-18T10:54:27.540Z,33
2018-09-18T10:55:30.275Z,33
2018-09-18T10:56:32.791Z,33
2018-09-18T10:57:35.228Z,33
2018-09-18T10:58:37.671Z,33.1
2018-09-18T10:59:40.099Z,33.1
2018-09-18T11:00:42.278Z,33.1
2018-09-18T11:01:44.835Z,32.9
2018-09-18T11:02:47.481Z,32.9
2018-09-18T11:03:49.946Z,32.9
2018-09-18T11:04:52.419Z,33
2018-09-18T11:05:54.878Z,33.1
2018-09-18T11:06:57.508Z,33
2018-09-18T11:08:00.471Z,32.9
2018-09-18T11:09:02.919Z,33
2018-09-18T11:10:05.227Z,32.9
2018-09-18T11:11:07.791Z,33
2018-09-18T11:12:10.304Z,33.1
2018-09-18T11:13:12.854Z,33
2018-09-18T11:14:15.629Z,33
2018-09-18T11:15:19.408Z,32.9
2018-09-18T11:16:22.272Z,33
2018-09-18T11:17:24.717Z,33
2018-09-18T11:18:27.049Z,33
2018-09-18T11:19:29.272Z,33
2018-09-18T11:20:31.716Z,33
2018-09-18T11:21:34.489Z,33
2018-09-18T11:22:37.472Z,33
2018-09-18T11:23:40.151Z,33
2018-09-18T11:24:42.998Z,33.1
2018-09-18T11:25:45.722Z,33.1
2018-09-18T11:26:47.888Z,32.9
2018-09-18T11:27:50.383Z,33
2018-09-18T11:28:52.868Z,33
2018-09-18T11:29:55.306Z,33
2018-09-18T11:30:57.772Z,33
2018-09-18T11:32:00.251Z,33.1
2018-09-18T11:33:03.026Z,33.1
2018-09-18T11:34:05.471Z,33
2018-09-18T11:35:08.088Z,33.1
2018-09-18T11:36:10.572Z,33
2018-09-18T11:37:13.003Z,33.1
2018-09-18T11:38:15.452Z,33
2018-09-18T11:39:17.883Z,33.1
2018-09-18T11:40:20.313Z,33
2018-09-18T11:41:22.748Z,33.1
2018-09-18T11:42:25.188Z,33
2018-09-18T11:43:27.623Z,33
2018-09-18T11:44:30.055Z,33.1
2018-09-18T11:45:32.679Z,33.1
2018-09-18T11:46:35.410Z,33
2018-09-18T11:47:37.836Z,33
2018-09-18T11:48:40.279Z,33
2018-09-18T11:49:42.714Z,33.1
2018-09-18T11:50:45.149Z,33.1
2018-09-18T11:51:47.583Z,33.2
2018-09-18T11:52:50.105Z,33
2018-09-18T11:53:52.976Z,33.2
2018-09-18T11:54:55.410Z,33.1
2018-09-18T11:55:57.844Z,33.2
2018-09-18T11:57:00.328Z,33
2018-09-18T11:58:02.926Z,33
2018-09-18T11:59:05.369Z,33.1
2018-09-18T12:00:07.800Z,33.2
2018-09-18T12:01:10.237Z,33.1
2018-09-18T12:02:12.676Z,33
2018-09-18T12:03:15.335Z,33.1
2018-09-18T12:04:17.838Z,33
2018-09-18T12:05:20.278Z,33
2018-09-18T12:06:22.436Z,33.2
2018-09-18T12:07:24.576Z,33.1
2018-09-18T12:08:27.018Z,33.1
2018-09-18T12:09:29.444Z,33.1
2018-09-18T12:10:31.882Z,33.1
2018-09-18T12:11:34.520Z,33.2
2018-09-18T12:12:37.229Z,33.1
2018-09-18T12:13:39.386Z,33.1
2018-09-18T12:14:41.816Z,33.1
2018-09-18T12:15:44.267Z,33.1
2018-09-18T12:16:46.750Z,33.1
2018-09-18T12:17:49.343Z,33.1
2018-09-18T12:18:51.776Z,33.2
2018-09-18T12:19:54.204Z,33.1
2018-09-18T12:20:56.637Z,33.2
2018-09-18T12:21:58.809Z,33.2
2018-09-18T12:23:01.238Z,33.1
2018-09-18T12:24:03.679Z,33.2
2018-09-18T12:25:06.108Z,33
2018-09-18T12:26:08.547Z,33.2
2018-09-18T12:27:10.979Z,33.1
2018-09-18T12:28:13.416Z,33
2018-09-18T12:29:15.854Z,33.1
2018-09-18T12:30:18.290Z,33.2
2018-09-18T12:31:20.723Z,33.2
2018-09-18T12:32:23.157Z,33.1
2018-09-18T12:33:25.606Z,33.1
2018-09-18T12:34:27.773Z,33.1
2018-09-18T12:35:30.550Z,33.2
2018-09-18T12:36:33.751Z,33.2
2018-09-18T12:37:36.200Z,33.2
2018-09-18T12:38:38.640Z,33.2
2018-09-18T12:39:41.083Z,33.1
2018-09-18T12:40:43.247Z,33.1
2018-09-18T12:41:45.811Z,33.2
2018-09-18T12:42:49.014Z,33.1
2018-09-18T12:43:51.791Z,33.2
2018-09-18T12:44:54.232Z,33.1
2018-09-18T12:45:56.663Z,33.1
2018-09-18T12:46:59.104Z,33.2
2018-09-18T12:48:01.723Z,33.1
2018-09-18T12:49:04.323Z,33.3
2018-09-18T12:50:07.690Z,33.1
2018-09-18T12:51:10.915Z,33.1
2018-09-18T12:52:13.357Z,33.1
2018-09-18T12:53:15.778Z,33.1
2018-09-18T12:54:18.214Z,33.1
2018-09-18T12:55:20.636Z,33.1
2018-09-18T12:56:22.809Z,33.1
2018-09-18T12:57:25.360Z,33.2
2018-09-18T12:58:28.857Z,33
2018-09-18T12:59:31.921Z,33
2018-09-18T13:00:34.445Z,33.1
2018-09-18T13:01:36.886Z,33.1
2018-09-18T13:02:39.036Z,33.1
2018-09-18T13:03:41.478Z,33.1
2018-09-18T13:04:43.910Z,33.1
2018-09-18T13:05:46.418Z,33.1
2018-09-18T13:06:49.055Z,33.2
2018-09-18T13:07:52.236Z,33.2
2018-09-18T13:08:54.911Z,33.2
2018-09-18T13:09:57.463Z,33.2
2018-09-18T13:11:00.022Z,33.1
2018-09-18T13:12:02.480Z,33.2
2018-09-18T13:13:04.982Z,33.1
2018-09-18T13:14:07.782Z,33.2
2018-09-18T13:15:10.879Z,33.1
2018-09-18T13:16:13.009Z,33.2
2018-09-18T13:17:15.247Z,33.2
2018-09-18T13:18:17.263Z,33.3
2018-09-18T13:19:19.803Z,33.2
2018-09-18T13:20:22.246Z,33.2
2018-09-18T13:21:24.709Z,33.1
2018-09-18T13:22:27.147Z,33.1
2018-09-18T13:23:29.581Z,33.2
2018-09-18T13:24:31.800Z,33.1
2018-09-18T13:25:34.227Z,33.2
2018-09-18T13:26:36.680Z,33.1
2018-09-18T13:27:39.244Z,33.1
2018-09-18T13:28:41.788Z,33.1
2018-09-18T13:29:44.223Z,33.2
2018-09-18T13:30:46.679Z,33.1
2018-09-18T13:31:49.135Z,33.2
2018-09-18T13:32:51.624Z,33.2
2018-09-18T13:33:54.066Z,33.2
2018-09-18T13:34:56.496Z,33
2018-09-18T13:35:58.952Z,33.2
2018-09-18T13:37:01.386Z,33.1
2018-09-18T13:38:03.833Z,33.2
2018-09-18T13:39:06.025Z,33.2
2018-09-18T13:40:08.460Z,33.1
2018-09-18T13:41:11.048Z,33.1
2018-09-18T13:42:13.311Z,33.2
2018-09-18T13:43:15.741Z,33.2
2018-09-18T13:44:18.184Z,33.1
2018-09-18T13:45:20.613Z,33.2
2018-09-18T13:46:22.813Z,33.1
2018-09-18T13:47:25.639Z,33.3
2018-09-18T13:48:28.077Z,33.1
2018-09-18T13:49:30.546Z,33.2
2018-09-18T13:50:32.998Z,33.1
2018-09-18T13:51:35.158Z,33.2
2018-09-18T13:52:37.318Z,33.2
2018-09-18T13:53:39.768Z,33.1
2018-09-18T13:54:41.949Z,33.1
2018-09-18T13:55:44.403Z,33.1
2018-09-18T13:56:46.980Z,33.3
2018-09-18T13:57:49.991Z,33.1
2018-09-18T13:58:52.431Z,33.3
2018-09-18T13:59:54.865Z,33.3
2018-09-18T14:00:57.354Z,33.2
2018-09-18T14:01:59.839Z,33.2
2018-09-18T14:03:02.269Z,33.1
2018-09-18T14:04:04.739Z,33.2
2018-09-18T14:05:07.180Z,33.1
2018-09-18T14:06:09.662Z,33.1